sensor_id;sensor_type;location;lat;lon;timestamp;pressure;altitude;pressure_sealevel;temperature;humidity
55590;BME280;41452;42.780;23.116;2022-11-04T00:01:33;94528.44;;;7.91;76.01
55590;BME280;41452;42.780;23.116;2022-11-04T00:04:01;94539.19;;;7.70;76.71
55590;BME280;41452;42.780;23.116;2022-11-04T00:06:26;94512.47;;;7.61;76.56
55590;BME280;41452;42.780;23.116;2022-11-04T00:08:54;94518.88;;;7.65;77.11
55590;BME280;41452;42.780;23.116;2022-11-04T00:11:20;94510.06;;;7.59;77.10
55590;BME280;41452;42.780;23.116;2022-11-04T00:14:06;94511.13;;;7.38;77.57
55590;BME280;41452;42.780;23.116;2022-11-04T00:16:32;94527.19;;;7.55;77.53
55590;BME280;41452;42.780;23.116;2022-11-04T00:19:16;94522.97;;;7.48;77.57
55590;BME280;41452;42.780;23.116;2022-11-04T00:21:41;94511.72;;;7.47;77.87
55590;BME280;41452;42.780;23.116;2022-11-04T00:24:26;94505.91;;;7.45;77.51
55590;BME280;41452;42.780;23.116;2022-11-04T00:27:18;94471.19;;;7.24;77.17
55590;BME280;41452;42.780;23.116;2022-11-04T00:30:07;94516.94;;;7.54;77.46
55590;BME280;41452;42.780;23.116;2022-11-04T00:32:33;94501.84;;;7.49;77.92
55590;BME280;41452;42.780;23.116;2022-11-04T00:35:17;94509.94;;;7.41;78.03
55590;BME280;41452;42.780;23.116;2022-11-04T00:37:43;94503.94;;;7.27;77.92
55590;BME280;41452;42.780;23.116;2022-11-04T00:40:11;94508.78;;;7.23;78.59
55590;BME280;41452;42.780;23.116;2022-11-04T00:42:37;94504.56;;;7.22;78.47
55590;BME280;41452;42.780;23.116;2022-11-04T00:45:03;94477.06;;;7.13;78.76
55590;BME280;41452;42.780;23.116;2022-11-04T00:47:29;94504.16;;;7.26;78.63
55590;BME280;41452;42.780;23.116;2022-11-04T00:49:54;94487.91;;;7.10;78.89
55590;BME280;41452;42.780;23.116;2022-11-04T00:52:20;94464.44;;;7.03;78.25
55590;BME280;41452;42.780;23.116;2022-11-04T00:54:46;94432.75;;;6.87;78.72
55590;BME280;41452;42.780;23.116;2022-11-04T00:57:12;94474.47;;;7.07;78.77
55590;BME280;41452;42.780;23.116;2022-11-04T00:59:38;94495.53;;;7.18;78.84
55590;BME280;41452;42.780;23.116;2022-11-04T01:02:05;94485.09;;;7.12;78.99
55590;BME280;41452;42.780;23.116;2022-11-04T01:04:31;94459.44;;;6.95;79.28
55590;BME280;41452;42.780;23.116;2022-11-04T01:06:57;94486.31;;;7.09;79.38
55590;BME280;41452;42.780;23.116;2022-11-04T01:09:22;94450.03;;;6.81;79.18
55590;BME280;41452;42.780;23.116;2022-11-04T01:11:48;94478.09;;;7.06;79.16
55590;BME280;41452;42.780;23.116;2022-11-04T01:14:14;94482.88;;;7.09;78.76
55590;BME280;41452;42.780;23.116;2022-11-04T01:16:39;94446.00;;;6.78;78.66
55590;BME280;41452;42.780;23.116;2022-11-04T01:19:05;94476.47;;;6.98;78.65
55590;BME280;41452;42.780;23.116;2022-11-04T01:21:30;94442.03;;;6.56;78.82
55590;BME280;41452;42.780;23.116;2022-11-04T01:23:55;94481.94;;;6.76;79.59
55590;BME280;41452;42.780;23.116;2022-11-04T01:26:23;94456.06;;;6.61;79.53
55590;BME280;41452;42.780;23.116;2022-11-04T01:28:50;94466.09;;;6.71;79.33
55590;BME280;41452;42.780;23.116;2022-11-04T01:31:27;94475.50;;;6.85;78.99
55590;BME280;41452;42.780;23.116;2022-11-04T01:33:54;94468.88;;;6.90;78.83
55590;BME280;41452;42.780;23.116;2022-11-04T01:36:20;94429.78;;;6.63;79.00
55590;BME280;41452;42.780;23.116;2022-11-04T01:38:46;94460.88;;;6.84;78.64
55590;BME280;41452;42.780;23.116;2022-11-04T01:41:17;94472.31;;;6.77;79.28
55590;BME280;41452;42.780;23.116;2022-11-04T01:46:27;94470.31;;;6.65;79.63
55590;BME280;41452;42.780;23.116;2022-11-04T01:48:58;94438.00;;;6.53;79.62
55590;BME280;41452;42.780;23.116;2022-11-04T01:51:27;94450.25;;;6.59;79.55
55590;BME280;41452;42.780;23.116;2022-11-04T01:53:55;94456.47;;;6.72;79.86
55590;BME280;41452;42.780;23.116;2022-11-04T01:56:21;94454.06;;;6.70;79.43
55590;BME280;41452;42.780;23.116;2022-11-04T01:58:51;94453.88;;;6.58;79.49
55590;BME280;41452;42.780;23.116;2022-11-04T02:01:18;94454.66;;;6.59;78.70
55590;BME280;41452;42.780;23.116;2022-11-04T02:06:09;94447.25;;;6.56;79.07
55590;BME280;41452;42.780;23.116;2022-11-04T02:08:36;94446.44;;;6.55;79.72
55590;BME280;41452;42.780;23.116;2022-11-04T02:11:02;94450.66;;;6.56;79.80
55590;BME280;41452;42.780;23.116;2022-11-04T02:13:30;94438.41;;;6.57;79.64
55590;BME280;41452;42.780;23.116;2022-11-04T02:16:10;94446.03;;;6.58;79.46
55590;BME280;41452;42.780;23.116;2022-11-04T02:24:11;94441.84;;;6.37;79.43
55590;BME280;41452;42.780;23.116;2022-11-04T02:29:41;94386.09;;;6.12;79.39
55590;BME280;41452;42.780;23.116;2022-11-04T02:32:26;94423.56;;;6.37;79.44
55590;BME280;41452;42.780;23.116;2022-11-04T02:35:02;94437.63;;;6.36;79.16
55590;BME280;41452;42.780;23.116;2022-11-04T02:48:31;94438.03;;;6.33;79.22
55590;BME280;41452;42.780;23.116;2022-11-04T02:51:09;94443.25;;;6.33;78.89
55590;BME280;41452;42.780;23.116;2022-11-04T02:53:46;94441.63;;;6.32;79.24
55590;BME280;41452;42.780;23.116;2022-11-04T02:56:16;94435.22;;;6.28;78.92
55590;BME280;41452;42.780;23.116;2022-11-04T02:58:50;94438.44;;;6.17;79.03
55590;BME280;41452;42.780;23.116;2022-11-04T03:01:16;94423.38;;;6.12;79.10
55590;BME280;41452;42.780;23.116;2022-11-04T03:03:48;94437.41;;;6.18;79.26
55590;BME280;41452;42.780;23.116;2022-11-04T03:06:20;94435.25;;;6.15;79.23
55590;BME280;41452;42.780;23.116;2022-11-04T03:08:50;94435.63;;;6.12;78.82
55590;BME280;41452;42.780;23.116;2022-11-04T03:11:19;94436.81;;;6.02;79.01
55590;BME280;41452;42.780;23.116;2022-11-04T03:14:02;94400.88;;;5.78;78.99
55590;BME280;41452;42.780;23.116;2022-11-04T03:19:28;94434.16;;;5.89;79.64
55590;BME280;41452;42.780;23.116;2022-11-04T03:22:12;94438.78;;;5.87;79.93
55590;BME280;41452;42.780;23.116;2022-11-04T03:24:39;94436.16;;;5.87;79.49
55590;BME280;41452;42.780;23.116;2022-11-04T03:27:26;94438.19;;;5.85;79.70
55590;BME280;41452;42.780;23.116;2022-11-04T03:35:29;94424.13;;;5.79;79.59
55590;BME280;41452;42.780;23.116;2022-11-04T03:37:56;94423.53;;;5.70;80.11
55590;BME280;41452;42.780;23.116;2022-11-04T03:40:21;94436.94;;;5.81;79.80
55590;BME280;41452;42.780;23.116;2022-11-04T03:42:56;94428.13;;;5.82;79.85
55590;BME280;41452;42.780;23.116;2022-11-04T03:45:24;94388.81;;;5.57;80.02
55590;BME280;41452;42.780;23.116;2022-11-04T03:47:50;94430.75;;;5.82;79.81
55590;BME280;41452;42.780;23.116;2022-11-04T03:52:48;94405.91;;;5.79;79.84
55590;BME280;41452;42.780;23.116;2022-11-04T03:55:14;94405.28;;;5.77;79.53
55590;BME280;41452;42.780;23.116;2022-11-04T03:58:03;94426.94;;;5.78;79.50
55590;BME280;41452;42.780;23.116;2022-11-04T04:00:42;94423.13;;;5.67;79.61
55590;BME280;41452;42.780;23.116;2022-11-04T04:03:47;94421.09;;;5.62;79.60
55590;BME280;41452;42.780;23.116;2022-11-04T04:06:18;94416.28;;;5.52;79.73
55590;BME280;41452;42.780;23.116;2022-11-04T04:08:53;94423.03;;;5.47;79.99
55590;BME280;41452;42.780;23.116;2022-11-04T04:11:43;94384.09;;;5.12;80.75
55590;BME280;41452;42.780;23.116;2022-11-04T04:14:30;94392.47;;;5.07;81.50
55590;BME280;41452;42.780;23.116;2022-11-04T04:17:29;94411.72;;;5.13;81.76
55590;BME280;41452;42.780;23.116;2022-11-04T04:20:03;94416.28;;;4.98;82.58
55590;BME280;41452;42.780;23.116;2022-11-04T04:22:36;94393.09;;;4.68;83.58
55590;BME280;41452;42.780;23.116;2022-11-04T04:25:06;94413.31;;;4.66;84.59
55590;BME280;41452;42.780;23.116;2022-11-04T04:27:55;94412.50;;;4.65;84.77
55590;BME280;41452;42.780;23.116;2022-11-04T04:30:22;94400.59;;;4.49;85.09
55590;BME280;41452;42.780;23.116;2022-11-04T04:32:52;94416.59;;;4.46;86.33
55590;BME280;41452;42.780;23.116;2022-11-04T04:35:32;94403.41;;;4.48;86.52
55590;BME280;41452;42.780;23.116;2022-11-04T04:38:29;94408.41;;;4.49;87.02
55590;BME280;41452;42.780;23.116;2022-11-04T04:41:18;94414.75;;;4.40;87.48
55590;BME280;41452;42.780;23.116;2022-11-04T04:44:05;94407.31;;;4.37;87.85
55590;BME280;41452;42.780;23.116;2022-11-04T04:46:55;94410.50;;;4.32;88.25
55590;BME280;41452;42.780;23.116;2022-11-04T04:49:21;94419.47;;;4.30;88.74
55590;BME280;41452;42.780;23.116;2022-11-04T04:51:46;94407.00;;;4.18;88.82
55590;BME280;41452;42.780;23.116;2022-11-04T04:54:12;94397.91;;;4.08;89.14
55590;BME280;41452;42.780;23.116;2022-11-04T04:56:38;94413.41;;;4.23;89.24
55590;BME280;41452;42.780;23.116;2022-11-04T04:59:04;94367.06;;;3.98;88.88
55590;BME280;41452;42.780;23.116;2022-11-04T05:01:30;94410.94;;;4.36;88.23
55590;BME280;41452;42.780;23.116;2022-11-04T05:03:56;94394.84;;;4.26;88.49
55590;BME280;41452;42.780;23.116;2022-11-04T05:06:21;94417.94;;;4.35;88.51
55590;BME280;41452;42.780;23.116;2022-11-04T05:08:47;94416.63;;;4.53;87.88
55590;BME280;41452;42.780;23.116;2022-11-04T05:11:12;94415.91;;;4.66;87.16
55590;BME280;41452;42.780;23.116;2022-11-04T05:13:37;94415.91;;;4.66;87.02
55590;BME280;41452;42.780;23.116;2022-11-04T05:16:05;94422.34;;;4.70;86.77
55590;BME280;41452;42.780;23.116;2022-11-04T05:18:31;94424.31;;;4.68;86.63
55590;BME280;41452;42.780;23.116;2022-11-04T05:20:57;94428.31;;;4.64;86.96
55590;BME280;41452;42.780;23.116;2022-11-04T05:23:22;94423.50;;;4.61;86.95
55590;BME280;41452;42.780;23.116;2022-11-04T05:25:48;94435.09;;;4.65;87.09
55590;BME280;41452;42.780;23.116;2022-11-04T05:28:13;94426.31;;;4.66;87.06
55590;BME280;41452;42.780;23.116;2022-11-04T05:30:38;94436.56;;;4.74;87.11
55590;BME280;41452;42.780;23.116;2022-11-04T05:33:04;94441.75;;;4.67;87.35
55590;BME280;41452;42.780;23.116;2022-11-04T05:35:29;94437.06;;;4.56;88.08
55590;BME280;41452;42.780;23.116;2022-11-04T05:37:55;94444.84;;;4.56;88.48
55590;BME280;41452;42.780;23.116;2022-11-04T05:40:21;94432.66;;;4.56;88.61
55590;BME280;41452;42.780;23.116;2022-11-04T05:42:47;94437.94;;;4.70;88.65
55590;BME280;41452;42.780;23.116;2022-11-04T05:45:12;94426.13;;;4.67;88.73
55590;BME280;41452;42.780;23.116;2022-11-04T05:47:38;94449.84;;;4.86;88.79
55590;BME280;41452;42.780;23.116;2022-11-04T05:50:03;94441.66;;;4.89;88.97
55590;BME280;41452;42.780;23.116;2022-11-04T05:52:29;94440.28;;;4.93;89.37
55590;BME280;41452;42.780;23.116;2022-11-04T05:54:55;94433.84;;;4.89;90.03
55590;BME280;41452;42.780;23.116;2022-11-04T05:57:20;94449.19;;;5.12;91.10
55590;BME280;41452;42.780;23.116;2022-11-04T05:59:46;94436.53;;;5.09;90.92
55590;BME280;41452;42.780;23.116;2022-11-04T06:02:11;94440.38;;;5.20;90.78
55590;BME280;41452;42.780;23.116;2022-11-04T06:04:37;94440.22;;;5.28;91.02
55590;BME280;41452;42.780;23.116;2022-11-04T06:07:02;94445.44;;;5.34;91.03
55590;BME280;41452;42.780;23.116;2022-11-04T06:09:27;94457.09;;;5.39;91.10
55590;BME280;41452;42.780;23.116;2022-11-04T06:12:10;94454.31;;;5.47;91.68
55590;BME280;41452;42.780;23.116;2022-11-04T06:14:36;94444.69;;;5.41;91.92
55590;BME280;41452;42.780;23.116;2022-11-04T06:17:02;94462.78;;;5.62;92.37
55590;BME280;41452;42.780;23.116;2022-11-04T06:19:28;94453.59;;;5.73;93.31
55590;BME280;41452;42.780;23.116;2022-11-04T06:21:53;94468.44;;;5.86;93.85
55590;BME280;41452;42.780;23.116;2022-11-04T06:24:19;94466.88;;;5.98;94.26
55590;BME280;41452;42.780;23.116;2022-11-04T06:26:44;94439.59;;;5.94;95.05
55590;BME280;41452;42.780;23.116;2022-11-04T06:29:10;94457.69;;;6.16;95.50
55590;BME280;41452;42.780;23.116;2022-11-04T06:31:35;94466.13;;;6.31;96.51
55590;BME280;41452;42.780;23.116;2022-11-04T06:34:01;94427.41;;;6.28;97.32
55590;BME280;41452;42.780;23.116;2022-11-04T06:36:27;94454.69;;;6.52;98.60
55590;BME280;41452;42.780;23.116;2022-11-04T06:38:52;94423.19;;;6.47;99.38
55590;BME280;41452;42.780;23.116;2022-11-04T06:41:18;94454.03;;;6.83;100.00
55590;BME280;41452;42.780;23.116;2022-11-04T06:43:43;94466.22;;;7.03;100.00
55590;BME280;41452;42.780;23.116;2022-11-04T06:46:49;94451.53;;;7.15;100.00
55590;BME280;41452;42.780;23.116;2022-11-04T06:49:16;94464.28;;;7.50;100.00
55590;BME280;41452;42.780;23.116;2022-11-04T06:51:42;94430.13;;;7.45;100.00
55590;BME280;41452;42.780;23.116;2022-11-04T06:54:08;94435.25;;;7.65;100.00
55590;BME280;41452;42.780;23.116;2022-11-04T06:56:33;94435.97;;;7.79;100.00
55590;BME280;41452;42.780;23.116;2022-11-04T06:58:59;94459.72;;;8.09;100.00
55590;BME280;41452;42.780;23.116;2022-11-04T07:01:26;94412.50;;;7.97;100.00
55590;BME280;41452;42.780;23.116;2022-11-04T07:03:55;94459.75;;;8.34;100.00
55590;BME280;41452;42.780;23.116;2022-11-04T07:06:21;94437.00;;;8.35;100.00
55590;BME280;41452;42.780;23.116;2022-11-04T07:08:48;94430.34;;;8.39;100.00
55590;BME280;41452;42.780;23.116;2022-11-04T07:11:15;94446.69;;;8.60;100.00
55590;BME280;41452;42.780;23.116;2022-11-04T07:13:41;94436.13;;;8.48;99.71
55590;BME280;41452;42.780;23.116;2022-11-04T07:16:07;94448.59;;;8.71;99.53
55590;BME280;41452;42.780;23.116;2022-11-04T07:18:33;94440.69;;;8.78;98.94
55590;BME280;41452;42.780;23.116;2022-11-04T07:21:01;94442.72;;;8.75;98.42
55590;BME280;41452;42.780;23.116;2022-11-04T07:23:27;94443.91;;;8.80;98.53
55590;BME280;41452;42.780;23.116;2022-11-04T07:25:52;94436.31;;;8.90;98.67
55590;BME280;41452;42.780;23.116;2022-11-04T07:28:20;94437.50;;;8.94;98.72
55590;BME280;41452;42.780;23.116;2022-11-04T07:30:46;94414.22;;;8.86;98.21
55590;BME280;41452;42.780;23.116;2022-11-04T07:33:11;94423.69;;;9.05;97.20
55590;BME280;41452;42.780;23.116;2022-11-04T07:35:37;94435.59;;;9.20;97.28
55590;BME280;41452;42.780;23.116;2022-11-04T07:38:03;94438.38;;;9.25;96.60
55590;BME280;41452;42.780;23.116;2022-11-04T07:40:29;94434.56;;;9.39;96.43
55590;BME280;41452;42.780;23.116;2022-11-04T07:42:59;94423.22;;;9.45;95.47
55590;BME280;41452;42.780;23.116;2022-11-04T07:45:24;94405.97;;;9.38;94.59
55590;BME280;41452;42.780;23.116;2022-11-04T07:47:49;94427.84;;;9.62;94.98
55590;BME280;41452;42.780;23.116;2022-11-04T07:50:15;94421.13;;;9.66;94.45
55590;BME280;41452;42.780;23.116;2022-11-04T07:52:40;94422.97;;;9.65;93.79
55590;BME280;41452;42.780;23.116;2022-11-04T07:55:06;94416.59;;;9.73;93.37
55590;BME280;41452;42.780;23.116;2022-11-04T07:57:31;94420.75;;;9.81;93.37
55590;BME280;41452;42.780;23.116;2022-11-04T07:59:56;94414.38;;;9.88;93.18
55590;BME280;41452;42.780;23.116;2022-11-04T08:02:22;94390.06;;;9.81;93.26
55590;BME280;41452;42.780;23.116;2022-11-04T08:04:47;94402.22;;;10.06;92.89
55590;BME280;41452;42.780;23.116;2022-11-04T08:07:13;94381.66;;;10.03;92.31
55590;BME280;41452;42.780;23.116;2022-11-04T08:09:38;94391.84;;;10.23;92.96
55590;BME280;41452;42.780;23.116;2022-11-04T08:12:04;94379.53;;;10.23;92.43
55590;BME280;41452;42.780;23.116;2022-11-04T08:14:30;94357.38;;;10.19;91.63
55590;BME280;41452;42.780;23.116;2022-11-04T08:16:55;94356.63;;;10.31;91.91
55590;BME280;41452;42.780;23.116;2022-11-04T08:19:21;94368.50;;;10.45;90.85
55590;BME280;41452;42.780;23.116;2022-11-04T08:21:46;94367.59;;;10.51;90.79
55590;BME280;41452;42.780;23.116;2022-11-04T08:24:12;94368.28;;;10.58;90.13
55590;BME280;41452;42.780;23.116;2022-11-04T08:26:37;94355.50;;;10.50;90.04
55590;BME280;41452;42.780;23.116;2022-11-04T08:29:09;94378.09;;;10.75;89.41
55590;BME280;41452;42.780;23.116;2022-11-04T08:31:35;94377.28;;;10.86;89.10
55590;BME280;41452;42.780;23.116;2022-11-04T08:34:00;94374.88;;;10.96;88.65
55590;BME280;41452;42.780;23.116;2022-11-04T08:36:31;94376.56;;;11.02;87.96
55590;BME280;41452;42.780;23.116;2022-11-04T08:38:57;94360.44;;;11.11;87.95
55590;BME280;41452;42.780;23.116;2022-11-04T08:41:29;94363.59;;;11.25;87.53
55590;BME280;41452;42.780;23.116;2022-11-04T08:43:55;94363.69;;;11.30;87.40
55590;BME280;41452;42.780;23.116;2022-11-04T08:46:21;94341.41;;;11.32;86.72
55590;BME280;41452;42.780;23.116;2022-11-04T08:48:47;94359.59;;;11.51;85.32
55590;BME280;41452;42.780;23.116;2022-11-04T08:51:22;94354.91;;;11.53;86.46
55590;BME280;41452;42.780;23.116;2022-11-04T08:53:48;94363.63;;;11.70;87.72
55590;BME280;41452;42.780;23.116;2022-11-04T08:56:26;94352.66;;;11.73;85.78
55590;BME280;41452;42.780;23.116;2022-11-04T08:58:52;94351.84;;;11.90;86.77
55590;BME280;41452;42.780;23.116;2022-11-04T09:01:19;94346.47;;;11.96;85.50
55590;BME280;41452;42.780;23.116;2022-11-04T09:03:45;94347.13;;;12.04;85.62
55590;BME280;41452;42.780;23.116;2022-11-04T09:06:14;94344.09;;;12.12;85.48
55590;BME280;41452;42.780;23.116;2022-11-04T09:08:40;94340.91;;;12.27;84.85
55590;BME280;41452;42.780;23.116;2022-11-04T09:11:10;94332.59;;;12.35;84.67
55590;BME280;41452;42.780;23.116;2022-11-04T09:13:36;94332.38;;;12.36;83.71
55590;BME280;41452;42.780;23.116;2022-11-04T09:16:02;94305.56;;;12.23;83.44
55590;BME280;41452;42.780;23.116;2022-11-04T09:18:29;94307.84;;;12.36;83.80
55590;BME280;41452;42.780;23.116;2022-11-04T09:20:54;94300.09;;;12.46;83.12
55590;BME280;41452;42.780;23.116;2022-11-04T09:23:19;94282.13;;;12.43;82.36
55590;BME280;41452;42.780;23.116;2022-11-04T09:25:45;94313.28;;;12.68;81.83
55590;BME280;41452;42.780;23.116;2022-11-04T09:28:10;94273.97;;;12.62;81.96
55590;BME280;41452;42.780;23.116;2022-11-04T09:30:37;94304.88;;;12.88;80.92
55590;BME280;41452;42.780;23.116;2022-11-04T09:33:03;94306.50;;;12.94;80.97
55590;BME280;41452;42.780;23.116;2022-11-04T09:35:28;94256.56;;;12.83;80.11
55590;BME280;41452;42.780;23.116;2022-11-04T09:37:54;94299.16;;;13.19;80.46
55590;BME280;41452;42.780;23.116;2022-11-04T09:40:22;94292.63;;;13.26;78.89
55590;BME280;41452;42.780;23.116;2022-11-04T09:45:32;94266.16;;;13.38;77.40
55590;BME280;41452;42.780;23.116;2022-11-04T09:48:03;94268.84;;;13.43;77.73
55590;BME280;41452;42.780;23.116;2022-11-04T09:50:40;94192.44;;;12.99;78.36
55590;BME280;41452;42.780;23.116;2022-11-04T09:53:16;94251.69;;;13.46;77.07
55590;BME280;41452;42.780;23.116;2022-11-04T09:55:54;94260.88;;;13.71;76.70
55590;BME280;41452;42.780;23.116;2022-11-04T09:58:21;94258.84;;;13.78;75.98
55590;BME280;41452;42.780;23.116;2022-11-04T10:01:02;94234.84;;;13.79;76.11
55590;BME280;41452;42.780;23.116;2022-11-04T10:03:53;94241.06;;;14.00;75.40
55590;BME280;41452;42.780;23.116;2022-11-04T10:06:32;94217.75;;;13.92;75.50
55590;BME280;41452;42.780;23.116;2022-11-04T10:22:20;94206.19;;;14.51;73.47
55590;BME280;41452;42.780;23.116;2022-11-04T10:25:04;94194.59;;;14.52;72.98
55590;BME280;41452;42.780;23.116;2022-11-04T10:27:36;94197.03;;;14.59;72.16
55590;BME280;41452;42.780;23.116;2022-11-04T10:30:08;94200.72;;;14.63;72.64
55590;BME280;41452;42.780;23.116;2022-11-04T10:37:54;94157.44;;;14.79;71.13
55590;BME280;41452;42.780;23.116;2022-11-04T10:40:26;94173.34;;;15.00;70.51
55590;BME280;41452;42.780;23.116;2022-11-04T10:42:57;94158.81;;;15.08;69.38
55590;BME280;41452;42.780;23.116;2022-11-04T10:45:30;94156.16;;;15.08;69.39
55590;BME280;41452;42.780;23.116;2022-11-04T10:48:05;94155.91;;;15.09;69.46
55590;BME280;41452;42.780;23.116;2022-11-04T10:53:14;94135.53;;;15.10;68.76
55590;BME280;41452;42.780;23.116;2022-11-04T10:55:48;94079.47;;;14.82;68.55
55590;BME280;41452;42.780;23.116;2022-11-04T10:58:20;94127.34;;;15.16;67.99
55590;BME280;41452;42.780;23.116;2022-11-04T11:00:47;94131.31;;;15.24;67.86
55590;BME280;41452;42.780;23.116;2022-11-04T11:03:28;94125.75;;;15.31;67.95
55590;BME280;41452;42.780;23.116;2022-11-04T11:08:34;94113.06;;;15.58;67.04
55590;BME280;41452;42.780;23.116;2022-11-04T11:11:03;94105.09;;;15.69;67.14
55590;BME280;41452;42.780;23.116;2022-11-04T11:13:35;94100.09;;;15.77;65.43
55590;BME280;41452;42.780;23.116;2022-11-04T11:18:37;94051.66;;;15.62;65.41
55590;BME280;41452;42.780;23.116;2022-11-04T11:23:37;94078.84;;;15.93;64.40
55590;BME280;41452;42.780;23.116;2022-11-04T11:26:06;94047.13;;;15.72;64.84
55590;BME280;41452;42.780;23.116;2022-11-04T11:28:32;94037.84;;;15.70;63.95
55590;BME280;41452;42.780;23.116;2022-11-04T11:31:06;94064.31;;;15.90;63.66
55590;BME280;41452;42.780;23.116;2022-11-04T11:33:44;94061.66;;;15.85;63.57
55590;BME280;41452;42.780;23.116;2022-11-04T11:38:58;94061.41;;;15.87;63.51
55590;BME280;41452;42.780;23.116;2022-11-04T11:41:26;94032.56;;;15.75;64.03
55590;BME280;41452;42.780;23.116;2022-11-04T11:46:51;94052.63;;;15.96;63.59
55590;BME280;41452;42.780;23.116;2022-11-04T11:49:27;94016.66;;;15.85;63.11
55590;BME280;41452;42.780;23.116;2022-11-04T11:51:55;94038.81;;;16.10;62.80
55590;BME280;41452;42.780;23.116;2022-11-04T11:54:32;94042.47;;;16.19;62.38
55590;BME280;41452;42.780;23.116;2022-11-04T11:57:07;94042.69;;;16.28;61.37
55590;BME280;41452;42.780;23.116;2022-11-04T12:04:46;94032.53;;;16.45;60.50
55590;BME280;41452;42.780;23.116;2022-11-04T12:21:15;93989.06;;;16.41;60.21
55590;BME280;41452;42.780;23.116;2022-11-04T12:23:54;93980.09;;;16.37;59.69
55590;BME280;41452;42.780;23.116;2022-11-04T12:36:57;93993.81;;;16.89;59.56
55590;BME280;41452;42.780;23.116;2022-11-04T12:48:48;93978.34;;;16.96;57.35
55590;BME280;41452;42.780;23.116;2022-11-04T12:54:04;93979.44;;;16.95;58.01
55590;BME280;41452;42.780;23.116;2022-11-04T12:56:38;93959.88;;;16.86;57.77
55590;BME280;41452;42.780;23.116;2022-11-04T13:01:37;93977.34;;;16.92;57.33
55590;BME280;41452;42.780;23.116;2022-11-04T13:04:11;93932.75;;;16.65;56.75
55590;BME280;41452;42.780;23.116;2022-11-04T13:07:00;93972.81;;;16.92;56.73
55590;BME280;41452;42.780;23.116;2022-11-04T13:09:41;93940.06;;;16.73;57.19
55590;BME280;41452;42.780;23.116;2022-11-04T13:12:17;93964.69;;;16.79;58.39
55590;BME280;41452;42.780;23.116;2022-11-04T13:14:53;93976.78;;;16.95;57.16
55590;BME280;41452;42.780;23.116;2022-11-04T13:17:25;93982.66;;;16.92;57.00
55590;BME280;41452;42.780;23.116;2022-11-04T13:19:55;93983.19;;;16.89;57.29
55590;BME280;41452;42.780;23.116;2022-11-04T13:22:31;93950.47;;;16.64;57.57
55590;BME280;41452;42.780;23.116;2022-11-04T13:27:46;93989.31;;;16.89;57.64
55590;BME280;41452;42.780;23.116;2022-11-04T13:30:22;93981.09;;;16.86;57.40
55590;BME280;41452;42.780;23.116;2022-11-04T13:38:37;93968.94;;;16.80;56.89
55590;BME280;41452;42.780;23.116;2022-11-04T13:43:39;93908.06;;;16.30;57.45
55590;BME280;41452;42.780;23.116;2022-11-04T13:46:19;93961.63;;;16.66;57.13
55590;BME280;41452;42.780;23.116;2022-11-04T13:49:13;93912.56;;;16.34;57.61
55590;BME280;41452;42.780;23.116;2022-11-04T13:51:44;93967.19;;;16.65;57.07
55590;BME280;41452;42.780;23.116;2022-11-04T13:54:26;93941.81;;;16.53;57.95
55590;BME280;41452;42.780;23.116;2022-11-04T13:57:15;93959.72;;;16.72;58.04
55590;BME280;41452;42.780;23.116;2022-11-04T14:00:06;93954.94;;;16.74;58.19
55590;BME280;41452;42.780;23.116;2022-11-04T14:02:43;93957.06;;;16.72;57.83
55590;BME280;41452;42.780;23.116;2022-11-04T14:18:37;93962.25;;;16.82;57.16
55590;BME280;41452;42.780;23.116;2022-11-04T14:21:13;93963.06;;;16.83;56.85
55590;BME280;41452;42.780;23.116;2022-11-04T14:23:41;93957.78;;;16.83;56.93
55590;BME280;41452;42.780;23.116;2022-11-04T14:26:13;93958.59;;;16.83;57.35
55590;BME280;41452;42.780;23.116;2022-11-04T14:28:48;93956.19;;;16.82;57.18
55590;BME280;41452;42.780;23.116;2022-11-04T14:31:44;93952.78;;;16.76;57.31
55590;BME280;41452;42.780;23.116;2022-11-04T14:37:02;93950.34;;;16.85;57.60
55590;BME280;41452;42.780;23.116;2022-11-04T14:39:38;93945.28;;;16.88;57.60
55590;BME280;41452;42.780;23.116;2022-11-04T14:42:05;93943.47;;;16.84;58.01
55590;BME280;41452;42.780;23.116;2022-11-04T14:44:36;93905.53;;;16.54;58.23
55590;BME280;41452;42.780;23.116;2022-11-04T14:47:14;93943.31;;;16.70;58.37
55590;BME280;41452;42.780;23.116;2022-11-04T14:52:43;93930.53;;;16.38;59.69
55590;BME280;41452;42.780;23.116;2022-11-04T14:57:47;93935.38;;;16.25;60.27
55590;BME280;41452;42.780;23.116;2022-11-04T15:00:38;93940.72;;;16.20;60.78
55590;BME280;41452;42.780;23.116;2022-11-04T15:03:20;93935.75;;;16.13;61.21
55590;BME280;41452;42.780;23.116;2022-11-04T15:05:48;93935.25;;;16.06;61.30
55590;BME280;41452;42.780;23.116;2022-11-04T15:13:45;93940.91;;;15.89;61.55
55590;BME280;41452;42.780;23.116;2022-11-04T15:16:22;93940.16;;;15.84;61.82
55590;BME280;41452;42.780;23.116;2022-11-04T15:18:49;93932.75;;;15.70;62.12
55590;BME280;41452;42.780;23.116;2022-11-04T15:21:15;93946.56;;;15.62;62.38
55590;BME280;41452;42.780;23.116;2022-11-04T15:23:42;93950.81;;;15.58;62.63
55590;BME280;41452;42.780;23.116;2022-11-04T15:26:32;93947.94;;;15.49;63.03
55590;BME280;41452;42.780;23.116;2022-11-04T15:29:01;93931.88;;;15.25;63.24
55590;BME280;41452;42.780;23.116;2022-11-04T15:31:33;93940.06;;;15.24;63.57
55590;BME280;41452;42.780;23.116;2022-11-04T15:34:00;93933.75;;;15.09;63.87
55590;BME280;41452;42.780;23.116;2022-11-04T15:36:34;93926.38;;;15.01;64.26
55590;BME280;41452;42.780;23.116;2022-11-04T15:39:21;93937.75;;;15.01;64.44
55590;BME280;41452;42.780;23.116;2022-11-04T15:41:49;93920.31;;;14.85;64.44
55590;BME280;41452;42.780;23.116;2022-11-04T15:44:36;93938.56;;;14.81;64.70
55590;BME280;41452;42.780;23.116;2022-11-04T15:49:42;93930.88;;;14.49;65.20
55590;BME280;41452;42.780;23.116;2022-11-04T15:52:13;93925.34;;;14.40;65.22